Time;durP1;ratioP1;P1;durP2;ratioP2;P2;SDS_P1;SDS_P2;PMS_P1;PMS_P2;Temp;Humidity;BMP_temperature;BMP_pressure;BME280_temperature;BME280_humidity;BME280_pressure;Samples;Min_cycle;Max_cycle;Signal;HPM_P1;HPM_P2
2023/03/31 00:01:34;;;;;;;32.20;5.30;;;10.30;99.90;;;;;;5051174;28;20132;-76
2023/03/31 00:04:02;;;;;;;35.92;4.97;;;10.30;99.90;;;;;;5037435;28;20087;-77
2023/03/31 00:06:28;;;;;;;37.83;5.60;;;10.40;99.90;;;;;;5033632;28;20091;-76
2023/03/31 00:08:54;;;;;;;33.90;4.90;;;10.40;99.90;;;;;;5038136;28;20045;-75
2023/03/31 00:11:21;;;;;;;31.23;4.97;;;10.40;99.90;;;;;;5037798;28;20047;-75
2023/03/31 00:13:47;;;;;;;29.60;4.93;;;10.40;99.90;;;;;;5040040;28;20099;-75
2023/03/31 00:16:13;;;;;;;29.35;4.57;;;10.40;99.90;;;;;;5036612;28;20045;-75
2023/03/31 00:18:46;;;;;;;29.58;5.97;;;10.40;99.90;;;;;;5040799;28;20117;-75
2023/03/31 00:21:23;;;;;;;30.67;5.10;;;10.40;99.90;;;;;;5034393;28;20056;-76
2023/03/31 00:23:54;;;;;;;27.65;4.78;;;10.40;99.90;;;;;;5043297;28;20153;-76
2023/03/31 00:26:21;;;;;;;25.88;4.90;;;10.40;99.90;;;;;;5040594;28;20080;-76
2023/03/31 00:28:47;;;;;;;33.28;5.30;;;10.40;99.90;;;;;;5056499;28;20048;-76
2023/03/31 00:31:13;;;;;;;31.42;5.00;;;10.40;99.90;;;;;;5039936;28;20051;-76
2023/03/31 00:33:39;;;;;;;34.72;5.18;;;10.40;99.90;;;;;;5022440;28;20053;-77
2023/03/31 00:36:08;;;;;;;38.20;5.07;;;10.40;99.90;;;;;;5039646;28;20191;-77
2023/03/31 00:38:34;;;;;;;36.33;5.22;;;10.30;99.90;;;;;;5052260;28;20110;-76
2023/03/31 00:41:02;;;;;;;41.70;5.82;;;10.40;99.90;;;;;;5035265;28;20061;-76
2023/03/31 00:43:35;;;;;;;28.50;4.22;;;10.30;99.90;;;;;;5041667;28;20136;-76
2023/03/31 00:46:16;;;;;;;34.38;6.00;;;10.40;99.90;;;;;;5044046;28;20032;-75
2023/03/31 00:48:48;;;;;;;28.83;4.90;;;10.30;99.90;;;;;;5039488;28;20087;-78
2023/03/31 00:51:14;;;;;;;31.88;4.95;;;10.50;99.90;;;;;;5052374;28;20591;-78
2023/03/31 00:53:41;;;;;;;28.60;4.18;;;10.30;99.90;;;;;;5039287;28;20560;-78
2023/03/31 00:56:12;;;;;;;25.85;4.70;;;10.30;99.90;;;;;;5034065;28;20087;-76
2023/03/31 00:58:42;;;;;;;29.75;4.90;;;10.30;99.90;;;;;;5040666;28;20763;-77
2023/03/31 01:01:14;;;;;;;28.85;5.65;;;10.20;99.90;;;;;;5037508;28;20053;-77
2023/03/31 01:03:41;;;;;;;30.13;4.43;;;10.20;99.90;;;;;;5040892;28;20048;-76
2023/03/31 01:06:09;;;;;;;35.75;5.00;;;10.20;99.90;;;;;;5020162;28;20044;-77
2023/03/31 01:08:37;;;;;;;29.30;4.95;;;10.20;99.90;;;;;;5028889;28;20041;-77
2023/03/31 01:11:10;;;;;;;28.13;4.60;;;10.10;99.90;;;;;;5042350;28;20053;-77
2023/03/31 01:13:40;;;;;;;35.05;4.82;;;10.10;99.90;;;;;;5031778;28;20559;-77
2023/03/31 01:16:06;;;;;;;24.83;5.10;;;10.10;99.90;;;;;;5039955;28;20045;-77
2023/03/31 01:18:35;;;;;;;30.25;4.82;;;10.00;99.90;;;;;;5039494;28;20044;-77
2023/03/31 01:21:18;;;;;;;33.97;4.60;;;10.10;99.90;;;;;;5042423;28;20056;-78
2023/03/31 01:24:06;;;;;;;34.33;4.18;;;10.00;99.90;;;;;;5017718;28;20037;-77
2023/03/31 01:27:10;;;;;;;35.58;5.18;;;10.00;99.90;;;;;;5036296;28;20038;-77
2023/03/31 01:29:50;;;;;;;28.77;5.25;;;9.90;99.90;;;;;;5015144;28;20076;-77
2023/03/31 01:32:34;;;;;;;28.00;4.47;;;9.90;99.90;;;;;;5024007;28;20044;-77
2023/03/31 01:35:06;;;;;;;23.63;4.25;;;9.90;99.90;;;;;;5020220;28;20080;-77
2023/03/31 01:38:09;;;;;;;27.50;4.72;;;10.20;99.90;;;;;;5037560;28;20052;-77
2023/03/31 01:41:00;;;;;;;29.52;4.15;;;9.90;99.90;;;;;;5033209;28;20716;-77
2023/03/31 01:43:33;;;;;;;30.15;4.18;;;9.80;99.90;;;;;;5036933;28;20049;-77
2023/03/31 01:46:20;;;;;;;24.23;5.13;;;9.80;99.90;;;;;;5036559;28;20119;-77
2023/03/31 01:49:07;;;;;;;25.23;4.72;;;9.80;99.90;;;;;;5037337;28;20057;-77
2023/03/31 01:51:56;;;;;;;24.70;4.38;;;9.70;99.90;;;;;;5038868;28;20409;-77
2023/03/31 01:54:38;;;;;;;20.80;3.63;;;9.70;99.90;;;;;;5044164;28;20232;-76
2023/03/31 01:57:32;;;;;;;25.38;4.40;;;9.70;99.90;;;;;;5047760;28;20563;-77
2023/03/31 02:00:10;;;;;;;28.13;4.30;;;9.70;99.90;;;;;;5049954;28;20132;-77
2023/03/31 02:02:50;;;;;;;26.98;4.43;;;9.70;99.90;;;;;;5038365;28;20051;-78
2023/03/31 02:05:25;;;;;;;27.45;4.10;;;9.60;99.90;;;;;;5054236;28;20111;-77
2023/03/31 02:08:20;;;;;;;28.70;4.40;;;9.60;99.90;;;;;;5039132;28;20089;-77
2023/03/31 02:10:46;;;;;;;31.35;5.65;;;9.60;99.90;;;;;;5023360;28;20433;-76
2023/03/31 02:13:15;;;;;;;27.60;3.85;;;9.60;99.90;;;;;;5042798;28;20048;-77
2023/03/31 02:15:46;;;;;;;34.42;4.82;;;9.50;99.90;;;;;;5037774;28;20033;-76
2023/03/31 02:18:17;;;;;;;28.95;4.72;;;9.60;99.90;;;;;;5031953;28;20048;-76
2023/03/31 02:20:48;;;;;;;25.83;3.90;;;9.50;99.90;;;;;;5044346;28;20040;-76
2023/03/31 02:23:18;;;;;;;28.63;4.07;;;9.50;99.90;;;;;;5041851;28;20052;-77
2023/03/31 02:26:02;;;;;;;23.40;4.00;;;9.50;99.90;;;;;;5035428;28;20040;-77
2023/03/31 02:28:29;;;;;;;26.10;4.45;;;9.50;99.90;;;;;;5018541;28;20086;-78
2023/03/31 02:31:06;;;;;;;25.52;3.53;;;9.50;99.90;;;;;;5051566;28;20853;-78
2023/03/31 02:33:32;;;;;;;20.10;3.85;;;9.50;99.90;;;;;;5041404;28;20068;-78
2023/03/31 02:35:59;;;;;;;23.95;4.13;;;9.50;99.90;;;;;;5046306;28;20041;-78
2023/03/31 02:38:26;;;;;;;31.35;5.00;;;9.50;99.90;;;;;;5025509;28;20493;-79
2023/03/31 02:40:51;;;;;;;25.15;4.13;;;9.50;99.90;;;;;;5039216;28;20049;-78
2023/03/31 02:43:17;;;;;;;20.15;3.92;;;9.50;99.90;;;;;;5038493;28;20063;-77
2023/03/31 02:45:49;;;;;;;19.73;3.70;;;9.50;99.90;;;;;;5038113;28;20041;-78
2023/03/31 02:48:23;;;;;;;;;;;9.50;99.90;;;;;;5048100;28;20049;-78
2023/03/31 02:51:06;;;;;;;23.98;3.63;;;9.50;99.90;;;;;;5042396;28;20347;-77
2023/03/31 02:53:47;;;;;;;30.08;3.95;;;9.50;99.90;;;;;;5027419;28;20858;-78
2023/03/31 02:56:27;;;;;;;26.98;3.55;;;9.60;99.90;;;;;;5039307;28;20049;-78
2023/03/31 02:59:05;;;;;;;24.52;3.83;;;9.50;99.90;;;;;;5035666;28;20075;-78
2023/03/31 03:01:50;;;;;;;21.35;3.78;;;9.50;99.90;;;;;;5029483;28;20488;-78
2023/03/31 03:04:48;;;;;;;23.42;3.35;;;9.50;99.90;;;;;;5039597;28;20045;-78
2023/03/31 03:07:40;;;;;;;22.00;3.55;;;9.50;99.90;;;;;;5016621;28;20076;-78
2023/03/31 03:10:38;;;;;;;25.17;4.10;;;9.50;99.90;;;;;;5048221;28;20593;-79
2023/03/31 03:13:19;;;;;;;25.02;4.20;;;9.50;99.90;;;;;;5009997;28;20053;-78
2023/03/31 03:15:51;;;;;;;21.67;4.53;;;9.60;99.90;;;;;;5032229;28;20203;-78
2023/03/31 03:18:17;;;;;;;25.08;4.50;;;9.50;99.90;;;;;;5050527;28;20041;-77
2023/03/31 03:20:48;;;;;;;23.55;3.25;;;9.50;99.90;;;;;;5044689;28;20151;-78
2023/03/31 03:23:14;;;;;;;24.40;3.88;;;9.50;99.90;;;;;;5040946;28;20041;-78
2023/03/31 03:25:40;;;;;;;21.88;3.28;;;9.50;99.90;;;;;;5041529;28;20366;-78
2023/03/31 03:28:06;;;;;;;20.83;3.13;;;9.50;99.90;;;;;;5033931;28;20068;-78
2023/03/31 03:30:32;;;;;;;22.48;3.63;;;9.50;99.90;;;;;;5037889;28;20075;-79
2023/03/31 03:32:57;;;;;;;20.90;3.75;;;9.50;99.90;;;;;;5023034;28;20052;-78
2023/03/31 03:35:24;;;;;;;19.95;3.50;;;9.50;99.90;;;;;;5042448;28;20063;-77
2023/03/31 03:37:50;;;;;;;22.13;3.83;;;9.50;99.90;;;;;;5026846;28;20416;-78
2023/03/31 03:40:15;;;;;;;19.20;3.50;;;9.50;99.90;;;;;;5036476;28;20045;-78
2023/03/31 03:42:41;;;;;;;19.38;4.05;;;9.50;99.90;;;;;;5027558;28;20049;-78
2023/03/31 03:45:08;;;;;;;24.60;3.38;;;9.50;99.90;;;;;;5035798;28;20044;-78
2023/03/31 03:47:34;;;;;;;24.73;3.47;;;9.50;99.90;;;;;;5012475;28;20099;-77
2023/03/31 03:50:01;;;;;;;25.42;3.70;;;9.50;99.90;;;;;;5027043;28;20041;-76
2023/03/31 03:52:27;;;;;;;19.90;3.53;;;9.50;99.90;;;;;;5040461;28;20413;-76
2023/03/31 03:54:52;;;;;;;17.55;3.55;;;9.90;99.90;;;;;;5031533;28;20038;-77
2023/03/31 03:57:18;;;;;;;19.98;3.03;;;9.60;99.90;;;;;;5028947;28;20067;-77
2023/03/31 03:59:44;;;;;;;18.08;3.70;;;9.80;99.90;;;;;;5006156;28;20049;-77
2023/03/31 04:02:10;;;;;;;20.20;3.53;;;9.60;99.90;;;;;;5005057;28;20079;-79
2023/03/31 04:04:36;;;;;;;23.05;3.95;;;9.60;99.90;;;;;;5036691;28;20055;-78
2023/03/31 04:07:02;;;;;;;17.63;3.65;;;9.60;99.90;;;;;;5008972;28;20044;-78
2023/03/31 04:09:27;;;;;;;17.75;3.38;;;9.60;99.90;;;;;;5033017;28;20256;-79
2023/03/31 04:11:53;;;;;;;23.48;3.38;;;9.60;99.90;;;;;;5029833;28;20064;-77
2023/03/31 04:14:19;;;;;;;18.60;3.55;;;9.60;99.90;;;;;;5022636;28;20497;-77
2023/03/31 04:16:47;;;;;;;16.35;3.78;;;9.60;99.90;;;;;;5006678;28;20053;-78
2023/03/31 04:19:16;;;;;;;20.58;4.40;;;9.60;99.90;;;;;;5035226;28;20108;-77
2023/03/31 04:21:44;;;;;;;14.45;3.67;;;9.60;99.90;;;;;;5023649;28;20124;-78
2023/03/31 04:24:14;;;;;;;17.42;3.92;;;9.70;99.90;;;;;;5039656;28;20045;-77
2023/03/31 04:26:43;;;;;;;18.27;4.60;;;9.70;99.90;;;;;;5026642;28;20389;-77
2023/03/31 04:29:15;;;;;;;23.15;5.60;;;9.70;99.90;;;;;;5019438;28;20576;-77
2023/03/31 04:31:44;;;;;;;17.15;3.85;;;9.70;99.90;;;;;;5034261;28;20080;-78
2023/03/31 04:34:12;;;;;;;14.00;4.95;;;9.60;99.90;;;;;;5040809;28;20039;-78
2023/03/31 04:36:45;;;;;;;15.80;4.70;;;9.60;99.90;;;;;;5030117;28;20091;-78
2023/03/31 04:39:15;;;;;;;15.40;4.35;;;9.70;99.90;;;;;;5031300;28;20064;-78
2023/03/31 04:41:41;;;;;;;18.27;5.03;;;9.70;99.90;;;;;;5040746;28;20456;-78
2023/03/31 04:44:08;;;;;;;19.02;4.90;;;9.70;99.90;;;;;;5040116;28;20075;-77
2023/03/31 04:46:34;;;;;;;18.52;5.13;;;9.70;99.90;;;;;;5039026;28;20502;-78
2023/03/31 04:49:01;;;;;;;15.25;4.78;;;9.70;99.90;;;;;;5049567;28;20091;-78
2023/03/31 04:51:27;;;;;;;17.75;4.90;;;9.70;99.90;;;;;;5038437;28;20431;-78
2023/03/31 04:53:54;;;;;;;19.27;5.22;;;9.60;99.90;;;;;;5052309;28;20041;-79
2023/03/31 04:56:19;;;;;;;17.67;5.55;;;9.70;99.90;;;;;;5055968;28;20048;-79
2023/03/31 04:58:45;;;;;;;13.93;5.05;;;9.70;99.90;;;;;;5035475;28;20052;-79
2023/03/31 05:01:16;;;;;;;20.92;5.32;;;9.70;99.90;;;;;;5034021;28;20452;-78
2023/03/31 05:03:43;;;;;;;;;;;9.70;99.90;;;;;;5046607;28;20041;-78
2023/03/31 05:06:09;;;;;;;15.70;5.78;;;9.70;99.90;;;;;;5035803;28;19920;-78
2023/03/31 05:08:35;;;;;;;20.63;6.97;;;9.70;99.90;;;;;;5026406;28;20118;-79
2023/03/31 05:11:02;;;;;;;18.15;6.05;;;9.70;99.90;;;;;;5050913;28;20040;-78
2023/03/31 05:13:28;;;;;;;17.58;5.80;;;9.70;99.90;;;;;;5041434;28;20126;-78
2023/03/31 05:15:54;;;;;;;16.73;6.45;;;9.70;99.90;;;;;;5036975;28;20064;-78
2023/03/31 05:18:20;;;;;;;17.90;6.25;;;9.80;99.90;;;;;;5038023;28;20082;-78
2023/03/31 05:20:46;;;;;;;21.25;6.57;;;9.80;99.90;;;;;;5047392;28;20048;-78
2023/03/31 05:23:12;;;;;;;19.17;6.32;;;9.80;99.90;;;;;;5033835;28;20041;-78
2023/03/31 05:25:41;;;;;;;14.02;6.68;;;9.80;99.90;;;;;;5037069;28;20072;-79
2023/03/31 05:28:07;;;;;;;19.38;6.88;;;9.80;99.90;;;;;;5033155;28;20041;-77
2023/03/31 05:30:33;;;;;;;19.73;7.30;;;9.80;99.90;;;;;;5032269;28;20052;-77
2023/03/31 05:32:59;;;;;;;14.55;6.35;;;9.80;99.90;;;;;;5029722;28;20048;-78
2023/03/31 05:35:25;;;;;;;18.67;7.20;;;9.80;99.90;;;;;;5002617;28;20049;-78
2023/03/31 05:37:51;;;;;;;17.50;6.30;;;9.80;99.90;;;;;;5007532;28;20076;-78
2023/03/31 05:40:17;;;;;;;20.65;6.30;;;9.80;99.90;;;;;;5039667;28;20076;-77
2023/03/31 05:42:43;;;;;;;20.02;6.43;;;9.80;99.90;;;;;;5020325;28;20456;-77
2023/03/31 05:45:09;;;;;;;15.35;5.63;;;9.80;99.90;;;;;;5027849;28;20102;-79
2023/03/31 05:47:35;;;;;;;20.65;6.22;;;9.80;99.90;;;;;;5028940;28;20117;-78
2023/03/31 05:50:06;;;;;;;19.27;6.13;;;9.80;99.90;;;;;;5033458;28;20748;-79
2023/03/31 05:52:32;;;;;;;17.98;6.22;;;9.80;99.90;;;;;;5028060;28;20056;-78
2023/03/31 05:54:57;;;;;;;21.10;5.72;;;9.80;99.90;;;;;;5030816;28;20855;-79
2023/03/31 05:57:23;;;;;;;17.55;5.55;;;9.80;99.90;;;;;;5025801;28;20037;-79
2023/03/31 05:59:49;;;;;;;16.35;5.57;;;9.80;99.90;;;;;;5030494;28;20045;-79
2023/03/31 06:02:14;;;;;;;20.60;5.28;;;9.80;99.90;;;;;;5016576;28;20041;-78
2023/03/31 06:04:41;;;;;;;17.63;5.40;;;9.80;99.90;;;;;;5030117;28;20639;-78
2023/03/31 06:07:07;;;;;;;17.90;4.65;;;9.80;99.90;;;;;;5022377;28;20079;-79
2023/03/31 06:09:36;;;;;;;16.98;5.47;;;9.80;99.90;;;;;;5009720;28;20083;-78
2023/03/31 06:12:02;;;;;;;13.18;4.60;;;9.80;99.90;;;;;;5020191;28;20072;-79
2023/03/31 06:14:27;;;;;;;20.73;4.95;;;9.80;99.90;;;;;;5029590;28;20360;-79
2023/03/31 06:16:53;;;;;;;16.85;4.43;;;9.80;99.90;;;;;;5024585;28;20064;-79
2023/03/31 06:19:19;;;;;;;11.98;4.45;;;9.80;99.90;;;;;;5038154;28;20041;-79
2023/03/31 06:21:45;;;;;;;9.68;3.88;;;9.90;99.90;;;;;;5032449;28;20081;-80
2023/03/31 06:24:11;;;;;;;13.43;4.35;;;9.80;99.90;;;;;;5035353;28;20102;-79
2023/03/31 06:26:36;;;;;;;18.05;4.57;;;9.80;99.90;;;;;;5039281;28;20052;-80
2023/03/31 06:29:02;;;;;;;14.63;4.05;;;10.10;99.90;;;;;;5033257;28;20555;-80
2023/03/31 06:31:28;;;;;;;14.60;4.10;;;9.80;99.90;;;;;;5019460;28;20088;-79
2023/03/31 06:33:53;;;;;;;13.20;4.03;;;9.80;99.90;;;;;;5040075;28;20068;-79
2023/03/31 06:36:21;;;;;;;11.75;4.05;;;9.80;99.90;;;;;;5035236;28;20048;-79
2023/03/31 06:38:47;;;;;;;14.77;4.90;;;9.80;99.90;;;;;;5045258;28;20044;-80
2023/03/31 06:41:15;;;;;;;15.23;4.90;;;9.70;99.90;;;;;;5040150;28;20413;-80
2023/03/31 06:43:41;;;;;;;12.00;4.05;;;9.80;99.90;;;;;;5051841;28;20463;-80
2023/03/31 06:46:07;;;;;;;13.95;3.92;;;9.80;99.90;;;;;;5038354;28;20044;-78
2023/03/31 06:48:33;;;;;;;12.95;3.85;;;9.80;99.90;;;;;;5034850;28;20051;-78
2023/03/31 06:51:01;;;;;;;12.48;3.92;;;9.80;99.90;;;;;;5039313;28;20036;-78
2023/03/31 06:53:27;;;;;;;15.68;4.22;;;9.80;99.90;;;;;;5024664;28;20053;-78
2023/03/31 06:55:53;;;;;;;13.82;3.97;;;9.80;99.90;;;;;;5009653;28;20045;-78
2023/03/31 06:58:19;;;;;;;11.65;3.65;;;9.80;99.90;;;;;;5018650;28;20047;-78
2023/03/31 07:00:45;;;;;;;13.00;3.80;;;9.80;99.90;;;;;;5016346;28;20057;-78
2023/03/31 07:03:11;;;;;;;11.23;3.40;;;9.80;99.90;;;;;;5011907;28;20483;-79
2023/03/31 07:05:37;;;;;;;9.80;3.60;;;9.90;99.90;;;;;;5029985;28;20103;-79
2023/03/31 07:08:04;;;;;;;14.85;3.80;;;9.80;99.90;;;;;;5010695;28;20141;-78
2023/03/31 07:10:31;;;;;;;11.52;3.60;;;9.80;99.90;;;;;;5012860;28;20160;-78
2023/03/31 07:12:57;;;;;;;7.20;2.83;;;9.80;99.90;;;;;;5029926;28;20088;-78
2023/03/31 07:15:24;;;;;;;11.93;3.20;;;9.80;99.90;;;;;;5014141;28;20052;-79
2023/03/31 07:17:52;;;;;;;8.65;3.17;;;9.70;99.90;;;;;;5001477;28;20527;-79
2023/03/31 07:20:19;;;;;;;8.48;3.00;;;9.80;99.90;;;;;;4997508;28;20053;-80
2023/03/31 07:22:46;;;;;;;8.05;3.30;;;9.80;99.90;;;;;;5016538;28;20076;-79
2023/03/31 07:25:16;;;;;;;11.82;3.72;;;9.80;99.90;;;;;;4995654;28;20064;-79
2023/03/31 07:27:43;;;;;;;13.20;4.10;;;9.80;99.90;;;;;;4998098;28;20107;-81
2023/03/31 07:30:15;;;;;;;13.27;3.78;;;10.00;99.90;;;;;;5018191;28;20581;-80
2023/03/31 07:32:40;;;;;;;12.32;3.83;;;9.80;99.90;;;;;;5028998;28;20448;-79
2023/03/31 07:35:09;;;;;;;10.38;4.13;;;9.80;99.90;;;;;;5029343;28;20045;-79
2023/03/31 07:37:41;;;;;;;9.95;3.92;;;9.80;99.90;;;;;;5038089;28;20308;-79
2023/03/31 07:40:14;;;;;;;11.93;3.72;;;9.80;99.90;;;;;;5039421;28;20068;-77
2023/03/31 07:42:40;;;;;;;9.68;3.83;;;9.80;99.90;;;;;;5007430;28;20056;-78
2023/03/31 07:45:07;;;;;;;10.43;3.35;;;9.80;99.90;;;;;;5009378;28;20044;-79
2023/03/31 07:47:33;;;;;;;10.82;3.53;;;9.80;99.90;;;;;;5023744;28;20383;-77
2023/03/31 07:49:59;;;;;;;9.93;4.00;;;9.90;99.90;;;;;;5011325;28;20048;-78
2023/03/31 07:52:24;;;;;;;9.60;3.53;;;9.90;99.90;;;;;;5018668;28;20151;-76
2023/03/31 07:54:50;;;;;;;10.07;3.60;;;9.90;99.90;;;;;;5015396;28;20090;-77
2023/03/31 07:57:18;;;;;;;6.85;3.10;;;9.90;99.90;;;;;;5027503;28;20347;-78
2023/03/31 07:59:45;;;;;;;9.07;2.97;;;9.90;99.90;;;;;;5042532;28;20059;-78
2023/03/31 08:02:13;;;;;;;10.82;3.60;;;9.90;99.90;;;;;;5026235;28;20045;-78
2023/03/31 08:04:41;;;;;;;10.27;3.10;;;9.90;99.90;;;;;;5037120;28;20119;-78
2023/03/31 08:07:10;;;;;;;9.65;2.80;;;9.90;99.90;;;;;;5021215;28;20052;-76
2023/03/31 08:09:37;;;;;;;13.35;3.08;;;9.90;99.90;;;;;;5029936;28;20048;-78
2023/03/31 08:12:04;;;;;;;9.13;2.38;;;9.90;99.90;;;;;;5037685;28;20086;-77
2023/03/31 08:14:30;;;;;;;10.07;3.40;;;9.90;99.90;;;;;;5004705;28;20045;-76
2023/03/31 08:16:56;;;;;;;8.73;2.90;;;9.90;99.90;;;;;;5029798;28;20041;-77
2023/03/31 08:19:23;;;;;;;9.27;2.90;;;9.90;99.90;;;;;;5037579;28;20044;-76
2023/03/31 08:21:51;;;;;;;9.98;3.08;;;9.90;99.90;;;;;;5023147;28;20545;-77
2023/03/31 08:24:17;;;;;;;9.38;2.95;;;10.00;99.90;;;;;;5048294;28;20658;-77
2023/03/31 08:26:43;;;;;;;8.43;3.25;;;9.90;99.90;;;;;;5018514;28;20097;-77
2023/03/31 08:29:09;;;;;;;6.65;2.78;;;10.00;99.90;;;;;;5041272;28;20037;-76
2023/03/31 08:31:35;;;;;;;10.95;3.40;;;9.90;99.90;;;;;;5032723;28;20629;-77
2023/03/31 08:34:01;;;;;;;10.63;3.03;;;10.00;99.90;;;;;;5037981;28;20161;-77
2023/03/31 08:36:27;;;;;;;9.93;3.13;;;10.00;99.90;;;;;;5033711;28;20045;-77
2023/03/31 08:38:53;;;;;;;11.95;3.25;;;10.00;99.90;;;;;;5045504;28;20037;-76
2023/03/31 08:41:57;;;;;;;11.93;3.58;;;10.00;99.90;;;;;;5038558;28;20048;-77
2023/03/31 08:44:35;;;;;;;9.65;2.60;;;10.00;99.90;;;;;;5037231;28;20080;-76
2023/03/31 08:47:03;;;;;;;10.85;3.20;;;10.00;99.90;;;;;;5036553;28;20417;-76
2023/03/31 08:49:38;;;;;;;9.65;2.85;;;10.00;99.90;;;;;;5031115;28;20044;-77
2023/03/31 08:52:09;;;;;;;7.72;2.60;;;10.00;99.90;;;;;;5037030;28;20036;-77
2023/03/31 08:54:40;;;;;;;12.95;3.47;;;10.10;99.90;;;;;;5034573;28;20052;-76
2023/03/31 08:57:17;;;;;;;13.52;3.42;;;10.10;99.90;;;;;;5018036;28;20071;-76
2023/03/31 08:59:45;;;;;;;10.73;2.97;;;10.10;99.90;;;;;;5037310;28;20049;-75
2023/03/31 09:02:40;;;;;;;9.20;3.00;;;10.10;99.90;;;;;;5044001;28;20470;-76
2023/03/31 09:05:25;;;;;;;12.88;3.28;;;10.10;99.90;;;;;;5040961;28;20048;-75
2023/03/31 09:08:21;;;;;;;11.95;3.35;;;10.10;99.90;;;;;;5040455;28;20143;-74
2023/03/31 09:10:58;;;;;;;11.88;3.15;;;10.10;99.90;;;;;;5013123;28;20057;-76
2023/03/31 09:13:51;;;;;;;13.65;3.38;;;10.10;99.90;;;;;;5044628;28;20045;-76
2023/03/31 09:16:33;;;;;;;11.65;3.30;;;10.20;99.90;;;;;;5021265;28;20053;-75
2023/03/31 09:19:00;;;;;;;8.10;3.05;;;10.20;99.90;;;;;;5042258;28;20464;-77
2023/03/31 09:21:31;;;;;;;12.07;3.60;;;10.20;99.90;;;;;;5030783;28;20041;-76
2023/03/31 09:24:19;;;;;;;11.95;3.30;;;10.20;99.90;;;;;;5043290;28;20037;-76
2023/03/31 09:26:48;;;;;;;17.52;4.10;;;10.30;99.90;;;;;;5032078;28;20106;-77
2023/03/31 09:29:28;;;;;;;14.27;3.70;;;10.30;99.90;;;;;;5042719;28;20047;-80
2023/03/31 09:32:00;;;;;;;15.32;3.60;;;10.30;99.90;;;;;;5048806;28;20028;-80
2023/03/31 09:34:30;;;;;;;12.95;3.45;;;10.30;99.90;;;;;;5038555;28;20094;-79
2023/03/31 09:36:56;;;;;;;14.77;4.32;;;10.40;99.90;;;;;;5050164;28;20540;-80
2023/03/31 09:39:22;;;;;;;11.25;3.72;;;10.40;99.90;;;;;;5059062;28;20045;-79
2023/03/31 09:41:50;;;;;;;13.75;4.13;;;10.40;99.90;;;;;;5024117;28;20060;-80
2023/03/31 09:44:38;;;;;;;10.90;3.65;;;10.50;99.90;;;;;;5043685;28;20051;-79
2023/03/31 09:47:06;;;;;;;10.48;3.97;;;10.60;99.90;;;;;;5028008;28;20045;-81
2023/03/31 09:49:36;;;;;;;15.10;4.15;;;10.60;99.90;;;;;;5044644;28;20373;-81
2023/03/31 09:52:23;;;;;;;12.88;4.35;;;10.70;99.90;;;;;;5025235;28;20116;-80
2023/03/31 09:54:50;;;;;;;9.63;3.72;;;10.80;99.90;;;;;;5017900;28;20045;-80
2023/03/31 09:57:27;;;;;;;11.18;4.10;;;10.80;99.90;;;;;;5040702;28;20075;-80
2023/03/31 10:00:00;;;;;;;10.90;3.70;;;10.80;99.90;;;;;;5050603;28;20211;-79
2023/03/31 10:02:36;;;;;;;13.38;3.90;;;10.90;99.90;;;;;;5018519;28;20052;-79
2023/03/31 10:05:04;;;;;;;14.65;3.35;;;10.90;99.90;;;;;;5033864;28;20049;-79
2023/03/31 10:07:31;;;;;;;10.38;3.50;;;11.00;99.90;;;;;;5040215;28;20041;-79
2023/03/31 10:09:57;;;;;;;10.40;3.35;;;11.00;99.90;;;;;;5037910;28;20405;-78
2023/03/31 10:12:27;;;;;;;10.88;3.58;;;11.00;99.90;;;;;;5035619;28;20051;-78
2023/03/31 10:15:01;;;;;;;9.55;2.92;;;11.10;99.90;;;;;;5032467;28;20056;-79
2023/03/31 10:17:27;;;;;;;8.07;2.35;;;11.10;99.90;;;;;;5045919;28;20034;-79
2023/03/31 10:20:16;;;;;;;7.75;3.00;;;11.00;99.90;;;;;;5037894;28;20049;-79
2023/03/31 10:22:45;;;;;;;9.52;2.50;;;11.10;99.90;;;;;;5042268;28;20041;-80
2023/03/31 10:25:26;;;;;;;7.05;2.63;;;11.00;99.90;;;;;;5045590;28;20048;-79
2023/03/31 10:27:54;;;;;;;8.25;2.85;;;11.10;99.90;;;;;;5034578;28;20671;-79
2023/03/31 10:30:34;;;;;;;8.43;3.45;;;11.00;99.90;;;;;;5026647;28;20458;-81
2023/03/31 10:33:04;;;;;;;8.35;3.15;;;11.00;99.90;;;;;;5005208;28;20072;-81
2023/03/31 10:35:33;;;;;;;11.05;3.20;;;11.00;99.90;;;;;;5027569;28;20472;-80
2023/03/31 10:38:13;;;;;;;10.48;3.13;;;11.00;99.90;;;;;;5013809;28;20045;-80
2023/03/31 10:40:49;;;;;;;8.50;3.10;;;11.10;99.90;;;;;;5027895;28;20048;-79
2023/03/31 10:43:19;;;;;;;9.73;2.80;;;11.10;99.90;;;;;;5055669;28;20052;-80
2023/03/31 10:45:47;;;;;;;10.52;3.10;;;11.10;99.90;;;;;;5031947;28;20095;-81
2023/03/31 10:48:37;;;;;;;8.32;3.20;;;11.30;99.90;;;;;;5028519;28;20079;-81
2023/03/31 10:51:14;;;;;;;10.70;3.40;;;11.20;99.90;;;;;;5012453;28;20046;-80
2023/03/31 10:53:45;;;;;;;11.93;3.17;;;11.20;99.90;;;;;;5023034;28;20137;-81
2023/03/31 10:57:02;;;;;;;9.05;3.08;;;11.30;99.90;;;;;;5029610;28;20639;-80
2023/03/31 10:59:52;;;;;;;11.70;3.55;;;11.30;99.90;;;;;;5040578;28;20052;-80
2023/03/31 11:02:45;;;;;;;11.53;3.50;;;11.40;99.90;;;;;;5046885;28;20063;-79
2023/03/31 11:05:17;;;;;;;9.70;3.03;;;11.50;99.90;;;;;;5044396;28;20079;-79
2023/03/31 11:07:51;;;;;;;9.48;2.50;;;11.70;99.90;;;;;;5039788;28;20040;-80
2023/03/31 11:10:23;;;;;;;10.55;3.20;;;11.60;99.90;;;;;;5035449;28;20041;-80
2023/03/31 11:12:57;;;;;;;;;;;11.70;99.90;;;;;;5052312;28;20047;-79
2023/03/31 11:15:45;;;;;;;9.88;3.33;;;11.80;99.90;;;;;;5029351;28;20023;-79
2023/03/31 11:18:32;;;;;;;11.85;3.20;;;11.80;99.90;;;;;;5039343;28;20048;-80
2023/03/31 11:21:36;;;;;;;12.00;3.38;;;11.90;99.90;;;;;;5030303;28;20049;-79
2023/03/31 11:24:51;;;;;;;14.60;3.40;;;11.90;99.90;;;;;;5038415;28;20037;-79
2023/03/31 11:27:52;;;;;;;13.02;3.33;;;12.00;99.90;;;;;;4994345;28;20053;-77
2023/03/31 11:30:33;;;;;;;11.60;3.30;;;12.10;99.90;;;;;;5022976;28;20118;-77
2023/03/31 11:33:02;;;;;;;10.90;3.13;;;12.10;99.90;;;;;;5029293;28;20052;-77
2023/03/31 11:36:00;;;;;;;10.23;2.90;;;12.20;99.90;;;;;;5027559;28;20122;-77
2023/03/31 11:38:53;;;;;;;9.30;2.72;;;12.20;99.90;;;;;;5041602;28;20048;-76
2023/03/31 11:41:23;;;;;;;10.02;2.60;;;12.10;99.90;;;;;;5013346;28;20429;-76
2023/03/31 11:43:53;;;;;;;8.13;2.58;;;12.10;99.90;;;;;;5042135;28;20052;-76
2023/03/31 11:46:32;;;;;;;12.73;2.83;;;12.10;99.90;;;;;;5025617;28;20471;-75
2023/03/31 11:49:14;;;;;;;9.18;2.33;;;12.20;99.90;;;;;;5037922;28;20052;-75
2023/03/31 11:51:57;;;;;;;11.38;2.90;;;12.20;99.90;;;;;;5035009;28;20144;-75
2023/03/31 11:54:30;;;;;;;11.07;2.50;;;12.20;99.90;;;;;;5014962;28;20040;-76
2023/03/31 11:56:56;;;;;;;13.35;3.17;;;12.20;99.90;;;;;;5049304;28;20052;-75
2023/03/31 11:59:30;;;;;;;11.15;2.58;;;12.20;99.90;;;;;;5023495;28;20052;-76
2023/03/31 12:02:18;;;;;;;13.93;2.92;;;12.20;99.90;;;;;;5020263;28;20057;-75
2023/03/31 12:04:50;;;;;;;10.93;2.42;;;12.30;99.90;;;;;;5051508;28;20136;-76
2023/03/31 12:07:44;;;;;;;11.40;2.38;;;12.20;99.90;;;;;;5034741;28;20527;-76
2023/03/31 12:10:35;;;;;;;10.32;2.90;;;12.20;99.90;;;;;;5040220;28;20045;-76
2023/03/31 12:13:29;;;;;;;13.25;2.58;;;12.10;99.90;;;;;;5043205;28;21551;-76
2023/03/31 12:16:16;;;;;;;8.93;2.88;;;12.10;99.90;;;;;;5035339;28;20044;-77
2023/03/31 12:19:03;;;;;;;10.95;2.42;;;12.10;99.90;;;;;;5015770;28;20052;-76
2023/03/31 12:21:31;;;;;;;10.30;3.42;;;12.10;99.90;;;;;;5042635;28;20426;-76
2023/03/31 12:23:57;;;;;;;9.48;2.67;;;12.10;99.90;;;;;;5046472;28;20052;-76
2023/03/31 12:26:48;;;;;;;9.13;2.90;;;12.10;99.90;;;;;;5044715;28;20032;-77
2023/03/31 12:29:58;;;;;;;10.82;2.85;;;12.10;99.90;;;;;;5040573;28;20120;-76
2023/03/31 12:32:28;;;;;;;10.18;2.75;;;12.10;99.90;;;;;;5020277;28;20141;-76
2023/03/31 12:35:07;;;;;;;12.07;3.07;;;12.10;99.90;;;;;;5036686;28;20520;-76
2023/03/31 12:37:54;;;;;;;12.50;2.88;;;12.10;99.90;;;;;;5017569;28;20339;-75
2023/03/31 12:40:44;;;;;;;12.98;2.80;;;12.10;99.90;;;;;;5037737;28;20056;-76
2023/03/31 12:43:34;;;;;;;17.95;4.20;;;12.20;99.90;;;;;;5026584;28;20049;-75
2023/03/31 12:46:09;;;;;;;12.37;2.90;;;12.30;99.90;;;;;;5022350;28;20053;-75
2023/03/31 12:48:51;;;;;;;13.70;2.80;;;12.30;99.90;;;;;;5025351;28;20057;-75
2023/03/31 12:51:26;;;;;;;12.43;2.72;;;12.40;99.90;;;;;;5039834;28;20045;-75
2023/03/31 12:54:10;;;;;;;14.80;3.33;;;12.30;99.90;;;;;;4991784;28;20073;-75
2023/03/31 12:57:07;;;;;;;12.18;3.15;;;12.50;99.90;;;;;;5021295;28;20498;-75
2023/03/31 12:59:35;;;;;;;14.07;3.38;;;12.40;99.90;;;;;;5000863;28;20041;-76
2023/03/31 13:02:10;;;;;;;13.60;3.55;;;12.40;99.90;;;;;;5021822;28;20067;-75
2023/03/31 13:04:37;;;;;;;11.88;3.15;;;12.50;99.90;;;;;;5011704;28;20081;-75
2023/03/31 13:07:11;;;;;;;12.10;3.40;;;12.50;99.90;;;;;;5010440;28;20041;-77
2023/03/31 13:09:45;;;;;;;11.57;2.70;;;12.50;99.90;;;;;;5009500;28;20097;-76
2023/03/31 13:12:27;;;;;;;12.43;2.92;;;12.50;99.90;;;;;;5029490;28;20144;-76
2023/03/31 13:14:58;;;;;;;13.05;3.47;;;12.50;99.90;;;;;;5021033;28;20045;-76